Time;durP1;ratioP1;P1;durP2;ratioP2;P2;SDS_P1;SDS_P2;PMS_P1;PMS_P2;Temp;Humidity;BMP_temperature;BMP_pressure;BME280_temperature;BME280_humidity;BME280_pressure;Samples;Min_cycle;Max_cycle;Signal;HPM_P1;HPM_P2
2023/01/13 00:00:41;;;;;;;3.53;1.00;;;13.30;56.20;;;;;;5000536;28;20417;-58
2023/01/13 00:03:07;;;;;;;1.50;0.90;;;13.50;56.00;;;;;;5003817;28;20236;-58
2023/01/13 00:05:33;;;;;;;4.37;1.07;;;13.60;55.80;;;;;;4999708;28;20194;-61
2023/01/13 00:07:58;;;;;;;3.03;0.90;;;13.50;55.40;;;;;;5004127;28;20688;-59
2023/01/13 00:10:24;;;;;;;2.37;0.80;;;13.40;55.70;;;;;;5004501;28;20532;-59
2023/01/13 00:12:50;;;;;;;5.07;1.00;;;13.40;55.80;;;;;;5001770;28;20566;-58
2023/01/13 00:15:15;;;;;;;4.20;0.77;;;13.50;55.70;;;;;;5002890;28;20311;-59
2023/01/13 00:17:41;;;;;;;0.80;0.80;;;13.60;55.50;;;;;;4997041;28;20958;-58
2023/01/13 00:20:08;;;;;;;4.93;1.00;;;13.70;55.40;;;;;;5008297;28;20287;-58
2023/01/13 00:22:34;;;;;;;1.60;1.20;;;13.50;55.40;;;;;;5006714;28;20202;-58
2023/01/13 00:25:00;;;;;;;1.50;0.80;;;13.50;55.90;;;;;;5006236;28;20835;-59
2023/01/13 00:27:27;;;;;;;1.10;1.00;;;13.50;55.80;;;;;;5008243;28;20448;-58
2023/01/13 00:29:53;;;;;;;1.50;0.80;;;13.50;55.80;;;;;;4997647;28;20437;-59
2023/01/13 00:32:18;;;;;;;0.80;0.70;;;13.50;55.90;;;;;;5004125;28;20455;-58
2023/01/13 00:34:44;;;;;;;1.77;0.80;;;13.40;56.10;;;;;;5005679;28;20225;-58
2023/01/13 00:37:11;;;;;;;1.07;0.80;;;13.60;56.10;;;;;;4999850;28;20182;-58
2023/01/13 00:39:37;;;;;;;0.80;0.73;;;13.70;55.80;;;;;;5005701;28;20324;-58
2023/01/13 00:44:47;;;;;;;1.80;1.10;;;13.40;56.20;;;;;;4999813;28;20201;-58
2023/01/13 00:47:12;;;;;;;3.00;1.10;;;13.50;56.10;;;;;;5003692;28;20452;-58
2023/01/13 00:49:38;;;;;;;1.37;1.20;;;13.40;56.20;;;;;;5007989;28;20232;-58
2023/01/13 00:52:04;;;;;;;2.17;0.90;;;13.40;56.40;;;;;;5009647;28;20697;-59
2023/01/13 00:54:29;;;;;;;2.10;0.80;;;13.60;56.10;;;;;;5003404;28;20286;-58
2023/01/13 00:56:55;;;;;;;1.67;1.00;;;13.40;56.50;;;;;;5009059;28;20248;-58
2023/01/13 00:59:20;;;;;;;2.13;0.80;;;13.30;56.00;;;;;;5008989;28;20198;-58
2023/01/13 01:01:46;;;;;;;0.80;0.80;;;13.40;56.30;;;;;;5003340;28;20190;-58
2023/01/13 01:04:11;;;;;;;2.07;1.30;;;13.50;56.10;;;;;;4999025;28;20198;-58
2023/01/13 01:06:37;;;;;;;1.73;0.90;;;13.50;56.00;;;;;;5008742;28;20196;-58
2023/01/13 01:09:03;;;;;;;3.53;1.10;;;13.50;56.10;;;;;;5005934;28;20562;-58
2023/01/13 01:11:31;;;;;;;2.40;0.90;;;13.40;55.90;;;;;;5000149;28;20202;-58
2023/01/13 01:13:58;;;;;;;1.10;0.87;;;13.30;56.10;;;;;;5008542;28;21096;-59
2023/01/13 01:16:26;;;;;;;1.13;1.00;;;13.60;56.20;;;;;;5003660;28;20453;-59
2023/01/13 01:18:53;;;;;;;2.20;1.03;;;13.60;56.00;;;;;;5008787;28;20444;-58
2023/01/13 01:21:20;;;;;;;1.93;1.20;;;13.70;55.70;;;;;;5006604;28;20453;-58
2023/01/13 01:23:45;;;;;;;0.73;0.73;;;13.60;55.80;;;;;;5000216;28;20948;-58
2023/01/13 01:26:13;;;;;;;3.63;1.03;;;13.60;55.80;;;;;;5008130;28;20444;-58
2023/01/13 01:28:40;;;;;;;1.63;0.93;;;13.60;55.60;;;;;;5006160;28;20247;-58
2023/01/13 01:31:20;;;;;;;1.40;0.90;;;13.60;55.60;;;;;;4997173;28;20455;-58
2023/01/13 01:33:46;;;;;;;1.10;1.00;;;13.60;55.60;;;;;;5007151;28;20933;-58
2023/01/13 01:36:14;;;;;;;0.93;0.83;;;13.60;55.40;;;;;;5000356;28;20441;-58
2023/01/13 01:38:39;;;;;;;3.80;1.13;;;13.80;56.10;;;;;;5002649;28;20650;-58
2023/01/13 01:41:06;;;;;;;1.47;0.97;;;13.60;55.50;;;;;;5005609;28;20463;-58
2023/01/13 01:43:58;;;;;;;0.93;0.80;;;13.60;55.60;;;;;;5008426;28;20190;-58
2023/01/13 01:46:40;;;;;;;1.10;0.83;;;13.60;55.80;;;;;;4998557;28;20480;-58
2023/01/13 01:49:14;;;;;;;1.47;0.80;;;13.40;56.10;;;;;;5011931;28;20476;-58
2023/01/13 01:52:00;;;;;;;1.70;0.87;;;13.40;56.10;;;;;;5008432;28;20458;-58
2023/01/13 01:54:37;;;;;;;1.00;0.80;;;13.60;55.80;;;;;;5002872;28;20597;-58
2023/01/13 01:57:03;;;;;;;1.10;0.90;;;13.60;55.80;;;;;;5008396;28;20527;-58
2023/01/13 01:59:34;;;;;;;1.87;0.80;;;13.60;56.00;;;;;;5003492;28;20468;-58
2023/01/13 02:01:59;;;;;;;1.70;0.70;;;13.60;56.30;;;;;;5002801;28;20893;-58
2023/01/13 02:04:30;;;;;;;1.33;1.03;;;13.70;56.60;;;;;;4998957;28;20437;-58
2023/01/13 02:06:56;;;;;;;7.33;1.00;;;13.90;56.10;;;;;;5007987;28;20281;-58
2023/01/13 02:09:24;;;;;;;4.60;1.40;;;13.70;55.70;;;;;;5009721;28;20953;-58
2023/01/13 02:14:35;;;;;;;2.10;0.93;;;13.60;56.20;;;;;;5008193;28;20622;-59
2023/01/13 02:17:27;;;;;;;1.17;1.00;;;13.60;56.10;;;;;;5000481;28;21466;-58
2023/01/13 02:20:14;;;;;;;3.30;0.80;;;13.60;56.10;;;;;;4999242;28;20442;-58
2023/01/13 02:22:58;;;;;;;0.93;0.83;;;13.70;56.30;;;;;;5007325;28;20443;-58
2023/01/13 02:25:48;;;;;;;1.90;0.97;;;13.70;56.10;;;;;;5005376;28;20445;-58
2023/01/13 02:31:40;;;;;;;1.80;0.80;;;13.40;56.40;;;;;;5010107;28;20986;-58
2023/01/13 02:31:43;;;;;;;1.47;0.80;;;13.40;56.80;;;;;;4998977;28;21174;-58
2023/01/13 02:34:19;;;;;;;1.30;0.80;;;13.70;56.70;;;;;;5003936;28;20564;-58
2023/01/13 02:37:08;;;;;;;1.70;1.10;;;13.60;56.40;;;;;;5006342;28;20472;-58
2023/01/13 02:39:40;;;;;;;1.00;0.80;;;13.70;56.30;;;;;;4999483;28;20838;-59
2023/01/13 02:45:27;;;;;;;2.47;1.00;;;13.60;56.20;;;;;;5005379;28;20460;-58
2023/01/13 02:47:55;;;;;;;1.60;0.80;;;13.80;56.40;;;;;;4996631;28;20497;-58
2023/01/13 02:50:29;;;;;;;2.40;0.87;;;13.80;56.30;;;;;;4997394;28;20453;-58
2023/01/13 02:52:59;;;;;;;1.90;0.90;;;13.70;56.10;;;;;;5000545;28;20437;-58
2023/01/13 02:55:37;;;;;;;3.30;0.90;;;13.70;56.20;;;;;;4996005;28;20504;-58
2023/01/13 02:58:07;;;;;;;1.13;0.80;;;13.80;56.50;;;;;;4998915;28;20484;-58
2023/01/13 03:00:34;;;;;;;1.10;0.70;;;13.80;56.20;;;;;;5003805;28;20448;-58
2023/01/13 03:03:00;;;;;;;1.60;1.03;;;13.90;56.20;;;;;;4996252;28;20449;-58
2023/01/13 03:05:26;;;;;;;1.47;1.00;;;13.90;56.00;;;;;;5008156;28;20852;-58
2023/01/13 03:07:58;;;;;;;4.90;1.27;;;14.00;55.90;;;;;;5003373;28;20433;-59
2023/01/13 03:11:11;;;;;;;1.90;0.90;;;14.10;55.70;;;;;;5007765;28;20441;-58
2023/01/13 03:13:50;;;;;;;1.27;1.17;;;14.10;55.50;;;;;;4996982;28;20460;-58
2023/01/13 03:16:39;;;;;;;1.50;0.83;;;13.80;55.80;;;;;;5006792;28;20465;-58
2023/01/13 03:19:36;;;;;;;1.53;1.00;;;14.10;56.00;;;;;;5004089;28;20461;-58
2023/01/13 03:22:16;;;;;;;2.00;1.00;;;13.80;55.80;;;;;;4995173;28;20529;-58
2023/01/13 03:24:48;;;;;;;1.10;0.80;;;13.70;56.20;;;;;;5003458;28;20966;-58
2023/01/13 03:28:00;;;;;;;2.10;1.00;;;13.70;56.80;;;;;;5001794;28;20882;-58
2023/01/13 03:30:36;;;;;;;1.20;1.07;;;13.60;56.80;;;;;;5003164;28;20499;-58
2023/01/13 03:33:14;;;;;;;1.20;1.00;;;13.50;57.00;;;;;;4990225;28;20457;-58
2023/01/13 03:35:44;;;;;;;1.80;0.93;;;13.60;57.20;;;;;;4997723;28;20531;-58
2023/01/13 03:38:15;;;;;;;1.50;0.97;;;13.50;57.10;;;;;;5003200;28;22145;-58
2023/01/13 03:40:47;;;;;;;4.03;1.17;;;13.70;56.80;;;;;;4994581;28;20509;-58
2023/01/13 03:46:10;;;;;;;2.90;1.27;;;13.50;57.10;;;;;;4996985;28;20456;-58
2023/01/13 03:48:40;;;;;;;3.37;1.30;;;13.70;57.10;;;;;;5003875;28;20479;-59
2023/01/13 03:51:10;;;;;;;1.90;1.00;;;13.50;56.90;;;;;;5009821;28;20436;-58
2023/01/13 03:53:45;;;;;;;3.60;1.10;;;13.40;57.50;;;;;;5004875;28;20449;-58
2023/01/13 03:56:38;;;;;;;3.20;0.90;;;13.60;57.20;;;;;;5002320;28;20488;-58
2023/01/13 03:59:06;;;;;;;1.20;0.90;;;13.60;57.10;;;;;;4996788;28;20822;-58
2023/01/13 04:01:35;;;;;;;1.90;1.40;;;13.70;56.90;;;;;;4998676;28;20475;-58
2023/01/13 04:04:08;;;;;;;1.43;1.10;;;13.60;56.60;;;;;;5009060;28;20445;-58
2023/01/13 04:06:45;;;;;;;2.13;0.83;;;13.50;56.90;;;;;;5006170;28;20469;-58
2023/01/13 04:09:21;;;;;;;0.93;0.70;;;13.20;57.60;;;;;;5004756;28;20828;-58
2023/01/13 04:12:10;;;;;;;2.10;1.10;;;13.00;58.20;;;;;;5000745;28;20441;-58
2023/01/13 04:14:36;;;;;;;5.83;1.50;;;13.20;58.50;;;;;;4999708;28;20493;-58
2023/01/13 04:17:01;;;;;;;0.77;0.77;;;13.30;58.20;;;;;;5004058;28;20437;-58
2023/01/13 04:19:27;;;;;;;1.10;0.80;;;13.30;58.10;;;;;;5006385;28;20445;-59
2023/01/13 04:21:53;;;;;;;0.93;0.70;;;13.30;58.20;;;;;;5006867;28;20189;-58
2023/01/13 04:24:18;;;;;;;1.97;1.17;;;13.10;58.40;;;;;;5010955;28;20200;-58
2023/01/13 04:26:44;;;;;;;0.80;0.80;;;13.30;58.40;;;;;;5007755;28;20672;-58
2023/01/13 04:29:09;;;;;;;3.50;1.17;;;13.40;58.10;;;;;;4999840;28;20340;-58
2023/01/13 04:31:35;;;;;;;1.37;0.80;;;13.30;58.20;;;;;;5003916;28;20281;-58
2023/01/13 04:34:02;;;;;;;2.10;0.90;;;13.40;58.30;;;;;;5014622;28;20285;-58
2023/01/13 04:36:27;;;;;;;0.90;0.80;;;13.30;58.10;;;;;;5005072;28;20449;-58
2023/01/13 04:38:56;;;;;;;1.10;0.93;;;13.30;58.10;;;;;;5006506;28;20437;-58
2023/01/13 04:41:21;;;;;;;4.40;1.40;;;13.30;58.20;;;;;;5006946;28;20420;-59
2023/01/13 04:43:47;;;;;;;1.73;0.80;;;13.40;58.10;;;;;;5008389;28;20524;-58
2023/01/13 04:46:13;;;;;;;1.23;1.00;;;13.70;57.60;;;;;;5006226;28;20572;-58
2023/01/13 04:48:38;;;;;;;3.13;0.83;;;13.60;57.30;;;;;;5005511;28;20233;-58
2023/01/13 04:51:04;;;;;;;1.37;0.83;;;13.60;57.30;;;;;;5004249;28;20281;-58
2023/01/13 04:53:29;;;;;;;1.03;0.80;;;13.70;57.30;;;;;;5000457;28;20210;-58
2023/01/13 04:55:55;;;;;;;2.10;0.90;;;13.80;57.10;;;;;;5000991;28;20230;-59
2023/01/13 04:58:21;;;;;;;1.03;0.93;;;13.70;57.10;;;;;;5002849;28;20190;-58
2023/01/13 05:00:46;;;;;;;1.80;0.83;;;13.70;57.00;;;;;;5009307;28;20198;-59
2023/01/13 05:03:12;;;;;;;4.33;1.00;;;13.70;57.10;;;;;;4998446;28;20277;-58
2023/01/13 05:05:37;;;;;;;1.10;0.70;;;13.80;57.00;;;;;;5005938;28;20220;-58
2023/01/13 05:08:03;;;;;;;2.03;1.03;;;13.90;57.00;;;;;;4996798;28;20217;-58
2023/01/13 05:10:29;;;;;;;1.10;1.00;;;13.90;56.70;;;;;;5002137;28;20198;-58
2023/01/13 05:18:25;;;;;;;1.17;0.80;;;14.20;56.40;;;;;;5004361;28;20452;-58
2023/01/13 05:20:51;;;;;;;2.00;0.50;;;14.10;56.30;;;;;;5008481;28;20440;-58
2023/01/13 05:26:00;;;;;;;0.83;0.83;;;14.10;56.80;;;;;;4994610;28;20193;-58
2023/01/13 05:28:30;;;;;;;1.47;0.80;;;13.90;56.70;;;;;;5002414;28;20436;-58
2023/01/13 05:30:56;;;;;;;0.93;0.60;;;13.90;56.40;;;;;;5001685;28;20198;-58
2023/01/13 05:33:22;;;;;;;1.20;0.80;;;13.70;56.70;;;;;;5001265;28;20816;-59
2023/01/13 05:35:48;;;;;;;0.80;0.60;;;13.80;56.90;;;;;;5003460;28;20321;-59
2023/01/13 05:38:14;;;;;;;1.07;0.60;;;13.70;56.80;;;;;;5006909;28;20209;-58
2023/01/13 05:43:26;;;;;;;0.97;0.80;;;13.90;56.70;;;;;;5001270;28;20487;-58
2023/01/13 05:45:51;;;;;;;1.00;0.70;;;14.00;56.20;;;;;;5001900;28;20485;-59
2023/01/13 05:48:18;;;;;;;0.60;0.60;;;13.70;56.70;;;;;;5004117;28;20844;-58
2023/01/13 05:50:45;;;;;;;2.80;0.70;;;13.80;56.80;;;;;;5007113;28;20286;-58
2023/01/13 05:53:11;;;;;;;1.80;0.80;;;13.70;56.70;;;;;;5003376;28;21136;-59
2023/01/13 05:55:39;;;;;;;1.07;0.60;;;13.80;56.80;;;;;;5005992;28;20839;-59
2023/01/13 05:58:05;;;;;;;2.20;0.70;;;13.80;56.90;;;;;;5000270;28;20528;-59
2023/01/13 06:00:31;;;;;;;1.30;0.60;;;13.70;56.70;;;;;;4994635;28;20858;-59
2023/01/13 06:02:56;;;;;;;1.07;0.70;;;13.80;56.70;;;;;;5005003;28;20444;-58
2023/01/13 06:05:22;;;;;;;0.80;0.60;;;13.70;56.80;;;;;;4995865;28;20550;-58
2023/01/13 06:07:47;;;;;;;1.13;1.03;;;13.70;56.80;;;;;;5008939;28;20198;-58
2023/01/13 06:10:13;;;;;;;0.97;0.60;;;13.70;56.90;;;;;;5003811;28;20297;-58
2023/01/13 06:12:39;;;;;;;1.00;0.63;;;13.80;56.80;;;;;;5005172;28;20244;-58
2023/01/13 06:15:05;;;;;;;2.23;0.67;;;14.00;56.70;;;;;;5006812;28;20695;-60
2023/01/13 06:17:30;;;;;;;0.70;0.70;;;14.20;56.40;;;;;;5007672;28;20578;-58
2023/01/13 06:19:56;;;;;;;0.70;0.70;;;14.10;56.10;;;;;;4998628;28;20444;-58
2023/01/13 06:22:29;;;;;;;1.00;0.90;;;14.20;56.20;;;;;;5000693;28;20896;-58
2023/01/13 06:24:55;;;;;;;1.50;0.90;;;14.20;56.00;;;;;;5002040;28;20233;-59
2023/01/13 06:27:22;;;;;;;3.33;0.83;;;13.80;56.30;;;;;;5004751;28;20472;-58
2023/01/13 06:29:47;;;;;;;2.20;1.10;;;13.90;56.80;;;;;;5010803;28;20217;-59
2023/01/13 06:32:42;;;;;;;1.57;0.70;;;13.80;56.60;;;;;;5000745;28;20442;-59
2023/01/13 06:35:13;;;;;;;1.23;0.70;;;13.70;56.80;;;;;;5001867;28;20709;-59
2023/01/13 06:37:40;;;;;;;1.60;0.67;;;13.90;57.00;;;;;;5003962;28;20482;-59
2023/01/13 06:40:07;;;;;;;0.60;0.60;;;14.00;56.70;;;;;;4996298;28;21646;-59
2023/01/13 06:45:20;;;;;;;0.80;0.60;;;14.00;56.70;;;;;;5006077;28;20546;-59
2023/01/13 06:47:46;;;;;;;1.50;0.90;;;14.00;56.70;;;;;;5003419;28;20515;-59
2023/01/13 06:50:11;;;;;;;1.90;0.80;;;13.90;56.70;;;;;;5004059;28;20476;-59
2023/01/13 06:52:37;;;;;;;1.37;0.80;;;13.80;57.00;;;;;;5001052;28;20664;-59
2023/01/13 06:55:03;;;;;;;0.80;0.70;;;13.60;57.40;;;;;;5002583;28;20899;-59
2023/01/13 06:57:29;;;;;;;0.97;0.80;;;13.70;57.50;;;;;;5001952;28;20256;-59
2023/01/13 06:59:54;;;;;;;1.77;0.80;;;13.70;57.80;;;;;;5005210;28;20912;-59
2023/01/13 07:02:20;;;;;;;0.60;0.60;;;13.70;57.40;;;;;;5001157;28;20277;-59
2023/01/13 07:04:45;;;;;;;1.00;0.60;;;13.60;57.50;;;;;;4999898;28;20199;-59
2023/01/13 07:07:12;;;;;;;0.70;0.60;;;13.70;57.60;;;;;;5003137;28;20236;-59
2023/01/13 07:09:38;;;;;;;0.83;0.70;;;13.70;57.30;;;;;;5002494;28;20194;-59
2023/01/13 07:12:03;;;;;;;1.10;0.70;;;13.80;57.50;;;;;;5001322;28;20814;-59
2023/01/13 07:17:13;;;;;;;0.70;0.70;;;13.90;57.40;;;;;;5000053;28;20205;-59
2023/01/13 07:19:39;;;;;;;2.43;0.90;;;13.80;57.30;;;;;;5006818;28;20937;-60
2023/01/13 07:22:04;;;;;;;0.80;0.70;;;13.70;57.60;;;;;;4998646;28;20230;-59
2023/01/13 07:24:30;;;;;;;1.23;0.70;;;13.70;57.90;;;;;;5001350;28;20197;-59
2023/01/13 07:26:55;;;;;;;0.73;0.60;;;13.80;57.90;;;;;;5003775;28;20189;-59
2023/01/13 07:29:21;;;;;;;0.70;0.70;;;13.70;57.70;;;;;;5000667;28;20624;-59
2023/01/13 07:31:47;;;;;;;0.80;0.70;;;13.80;57.80;;;;;;5004046;28;20198;-58
2023/01/13 07:34:12;;;;;;;2.00;0.60;;;13.90;57.50;;;;;;4998795;28;20210;-58
2023/01/13 07:36:38;;;;;;;0.70;0.70;;;13.80;57.70;;;;;;5006286;28;20198;-58
2023/01/13 07:39:04;;;;;;;3.07;0.80;;;13.70;57.80;;;;;;5004611;28;20198;-58
2023/01/13 07:44:14;;;;;;;0.90;0.73;;;13.80;58.10;;;;;;5007254;28;20604;-58
2023/01/13 07:46:39;;;;;;;0.87;0.60;;;13.70;57.90;;;;;;5003585;28;21067;-59
2023/01/13 07:49:05;;;;;;;0.73;0.73;;;13.80;58.00;;;;;;4998475;28;20229;-58
2023/01/13 07:51:41;;;;;;;0.80;0.80;;;13.90;57.90;;;;;;4995804;28;20194;-63
2023/01/13 07:54:06;;;;;;;0.90;0.80;;;14.20;57.40;;;;;;4999191;28;20542;-57
2023/01/13 07:56:32;;;;;;;0.73;0.60;;;14.30;57.00;;;;;;5007687;28;20566;-57
2023/01/13 07:58:58;;;;;;;2.30;1.20;;;14.40;56.60;;;;;;5007989;28;20190;-57
2023/01/13 08:01:26;;;;;;;3.17;0.90;;;14.50;56.60;;;;;;4996475;28;20202;-57
2023/01/13 08:03:52;;;;;;;0.70;0.70;;;14.30;56.70;;;;;;5002291;28;20589;-57
2023/01/13 08:06:17;;;;;;;0.80;0.80;;;14.30;56.80;;;;;;5008584;28;20531;-57
2023/01/13 08:08:43;;;;;;;1.17;0.63;;;14.40;56.90;;;;;;5008725;28;20307;-57
2023/01/13 08:11:09;;;;;;;1.23;0.80;;;14.50;56.70;;;;;;5007596;28;20248;-57
2023/01/13 08:13:34;;;;;;;1.03;0.80;;;14.50;56.70;;;;;;5009548;28;20198;-57
2023/01/13 08:16:03;;;;;;;1.50;0.80;;;14.60;56.60;;;;;;5008332;28;20259;-57
2023/01/13 08:18:29;;;;;;;2.07;0.90;;;14.60;56.50;;;;;;5006756;28;20273;-57
2023/01/13 08:20:59;;;;;;;0.83;0.70;;;14.60;56.80;;;;;;5007258;28;20448;-57
2023/01/13 08:23:25;;;;;;;0.70;0.70;;;14.70;57.10;;;;;;5005371;28;20468;-57
2023/01/13 08:25:50;;;;;;;4.40;0.90;;;14.70;57.10;;;;;;5009073;28;20546;-57
2023/01/13 08:28:16;;;;;;;1.20;0.87;;;14.80;57.10;;;;;;5008491;28;20194;-57
2023/01/13 08:30:42;;;;;;;1.20;1.10;;;14.70;57.00;;;;;;5003920;28;20247;-57
2023/01/13 08:33:10;;;;;;;0.80;0.80;;;14.60;57.20;;;;;;5006108;28;20940;-57
2023/01/13 08:35:37;;;;;;;1.93;0.80;;;14.70;57.50;;;;;;4997558;28;20344;-57
2023/01/13 08:38:04;;;;;;;1.57;0.70;;;14.60;56.90;;;;;;5006792;28;20472;-57
2023/01/13 08:40:30;;;;;;;0.63;0.63;;;14.60;57.40;;;;;;5005000;28;20445;-57
2023/01/13 08:42:56;;;;;;;0.70;0.70;;;14.50;57.80;;;;;;5009889;28;20798;-57
2023/01/13 08:45:21;;;;;;;0.93;0.60;;;14.60;57.70;;;;;;5009792;28;20440;-57
2023/01/13 08:47:47;;;;;;;0.70;0.70;;;14.80;58.50;;;;;;5001075;28;20226;-57
2023/01/13 08:50:13;;;;;;;2.07;1.10;;;14.80;57.70;;;;;;5009715;28;20247;-57
2023/01/13 08:52:39;;;;;;;1.13;0.83;;;14.50;58.50;;;;;;5010110;28;20189;-58
2023/01/13 08:55:05;;;;;;;0.70;0.53;;;14.50;59.50;;;;;;5008632;28;20493;-58
2023/01/13 08:57:30;;;;;;;0.93;0.83;;;14.30;61.00;;;;;;5000629;28;20195;-59
2023/01/13 08:59:56;;;;;;;0.90;0.90;;;14.00;62.80;;;;;;5007783;28;20458;-59
2023/01/13 09:02:22;;;;;;;0.87;0.60;;;14.20;63.40;;;;;;5013261;28;20230;-61
2023/01/13 09:04:49;;;;;;;0.60;0.60;;;13.70;62.90;;;;;;5005549;28;20192;-59
2023/01/13 09:07:15;;;;;;;3.27;0.90;;;13.60;65.00;;;;;;5011809;28;20974;-59
2023/01/13 09:09:41;;;;;;;1.27;0.90;;;13.60;64.50;;;;;;5007829;28;20508;-59
2023/01/13 09:14:55;;;;;;;0.73;0.70;;;13.60;65.50;;;;;;4997739;28;20504;-59
2023/01/13 09:17:22;;;;;;;1.57;0.70;;;13.70;66.90;;;;;;5005991;28;20440;-59
2023/01/13 09:19:47;;;;;;;1.50;0.80;;;13.50;67.80;;;;;;5001222;28;20190;-59
2023/01/13 09:22:15;;;;;;;0.50;0.50;;;13.40;68.40;;;;;;5008046;28;20441;-59
2023/01/13 09:24:41;;;;;;;3.07;0.80;;;13.20;65.80;;;;;;5006127;28;20198;-59
2023/01/13 09:27:08;;;;;;;1.27;0.67;;;13.00;65.30;;;;;;5011458;28;20458;-58
2023/01/13 09:29:34;;;;;;;2.00;0.80;;;13.00;64.40;;;;;;5005719;28;20206;-59
2023/01/13 09:31:59;;;;;;;0.77;0.67;;;12.90;63.90;;;;;;5003352;28;20472;-59
2023/01/13 09:37:10;;;;;;;0.80;0.60;;;12.50;62.70;;;;;;5003784;28;21375;-59
2023/01/13 09:39:35;;;;;;;1.13;0.50;;;12.50;62.20;;;;;;5010766;28;20552;-58
2023/01/13 09:45:05;;;;;;;0.87;0.50;;;12.70;61.40;;;;;;4995670;28;20697;-59
2023/01/13 09:47:44;;;;;;;0.50;0.50;;;12.90;61.10;;;;;;5003005;28;20485;-59
2023/01/13 09:50:13;;;;;;;1.43;0.70;;;13.00;60.20;;;;;;4994827;28;20453;-59
2023/01/13 09:52:40;;;;;;;0.60;0.50;;;13.10;60.20;;;;;;4997172;28;20449;-59
2023/01/13 09:55:16;;;;;;;0.90;0.50;;;13.20;59.80;;;;;;4994738;28;20508;-59
2023/01/13 09:57:42;;;;;;;0.50;0.50;;;13.10;60.20;;;;;;5011923;28;21036;-59
2023/01/13 10:00:13;;;;;;;0.70;0.70;;;13.30;59.90;;;;;;5009538;28;20564;-59
2023/01/13 10:02:44;;;;;;;0.93;0.87;;;13.10;59.80;;;;;;5012137;28;20233;-59
2023/01/13 10:06:14;;;;;;;2.53;1.00;;;13.10;60.40;;;;;;4997727;28;20456;-59
2023/01/13 10:08:47;;;;;;;0.93;0.90;;;13.20;60.30;;;;;;4950057;28;20465;-59
2023/01/13 10:14:15;;;;;;;5.20;0.83;;;13.40;60.20;;;;;;5011871;28;21154;-60
2023/01/13 10:17:03;;;;;;;0.70;0.70;;;13.10;60.20;;;;;;5010308;28;20440;-60
2023/01/13 10:19:38;;;;;;;0.80;0.80;;;13.00;61.60;;;;;;5010335;28;20464;-59
2023/01/13 10:22:16;;;;;;;0.60;0.60;;;12.90;62.00;;;;;;5006246;28;20833;-59
2023/01/13 10:25:09;;;;;;;0.80;0.50;;;13.00;61.60;;;;;;5005516;28;20584;-59
2023/01/13 10:27:38;;;;;;;1.57;0.50;;;12.60;60.50;;;;;;5008328;28;20485;-58
2023/01/13 10:30:31;;;;;;;1.23;0.70;;;12.50;62.40;;;;;;5011822;28;20433;-59
2023/01/13 10:32:59;;;;;;;2.43;1.43;;;12.70;62.60;;;;;;5011734;28;20830;-59
2023/01/13 10:36:00;;;;;;;3.47;0.80;;;12.80;61.70;;;;;;4998676;28;20986;-59
2023/01/13 10:38:38;;;;;;;2.60;0.77;;;13.00;62.30;;;;;;5006464;28;20457;-59
2023/01/13 10:41:25;;;;;;;2.07;1.00;;;13.00;62.20;;;;;;4994600;28;20597;-59
2023/01/13 10:43:50;;;;;;;1.13;0.80;;;13.00;62.00;;;;;;5001174;28;20432;-59
2023/01/13 10:46:17;;;;;;;2.50;1.13;;;13.00;61.40;;;;;;5009574;28;21086;-58
2023/01/13 10:48:54;;;;;;;1.00;0.70;;;13.00;61.50;;;;;;5011965;28;20237;-59
2023/01/13 10:51:38;;;;;;;1.43;0.93;;;13.00;61.80;;;;;;5011642;28;20454;-58
2023/01/13 10:54:10;;;;;;;2.87;1.00;;;12.90;61.90;;;;;;5001526;28;20457;-59
2023/01/13 10:56:37;;;;;;;1.50;0.80;;;13.00;62.30;;;;;;5006813;28;20452;-59
2023/01/13 10:59:21;;;;;;;1.47;1.37;;;12.80;63.10;;;;;;5004251;28;20503;-58
2023/01/13 11:02:07;;;;;;;2.23;1.00;;;12.60;63.40;;;;;;4995181;28;20461;-59
2023/01/13 11:04:38;;;;;;;1.23;0.83;;;12.90;64.20;;;;;;5000247;28;20445;-59
2023/01/13 11:07:17;;;;;;;3.60;1.10;;;13.10;64.00;;;;;;4993159;28;20484;-59
2023/01/13 11:09:42;;;;;;;1.37;0.90;;;13.30;64.00;;;;;;5007617;28;20444;-59
2023/01/13 11:12:32;;;;;;;2.00;0.97;;;13.10;64.00;;;;;;5004929;28;20441;-58
2023/01/13 11:15:07;;;;;;;0.80;0.70;;;13.10;65.00;;;;;;5011330;28;20230;-58
2023/01/13 11:17:42;;;;;;;2.83;0.70;;;12.80;63.00;;;;;;5009420;28;20448;-58
2023/01/13 11:20:14;;;;;;;3.40;0.90;;;12.30;62.80;;;;;;5000881;28;20807;-59
2023/01/13 11:22:50;;;;;;;1.13;0.60;;;12.20;64.70;;;;;;5001339;28;20539;-58
2023/01/13 11:25:32;;;;;;;3.80;0.80;;;12.00;62.60;;;;;;5004177;28;20459;-59
2023/01/13 11:28:20;;;;;;;1.27;0.63;;;12.10;61.80;;;;;;5005907;28;20957;-58
2023/01/13 11:31:12;;;;;;;2.00;0.90;;;12.10;61.90;;;;;;5004281;28;20536;-58
2023/01/13 11:33:46;;;;;;;2.10;1.30;;;12.20;62.10;;;;;;5004758;28;20971;-58
2023/01/13 11:36:23;;;;;;;3.40;0.70;;;12.20;62.30;;;;;;5005854;28;21136;-58
2023/01/13 11:38:51;;;;;;;1.13;0.70;;;12.40;62.40;;;;;;5000907;28;20944;-59
2023/01/13 11:41:23;;;;;;;2.17;1.20;;;12.40;62.00;;;;;;5006702;28;20998;-58
2023/01/13 11:44:09;;;;;;;2.20;0.80;;;12.60;62.30;;;;;;5005887;28;20448;-59
2023/01/13 11:46:35;;;;;;;3.70;1.30;;;12.70;61.70;;;;;;5005789;28;20475;-59
2023/01/13 11:49:01;;;;;;;1.47;1.10;;;12.80;61.20;;;;;;5007131;28;20551;-58
2023/01/13 11:51:50;;;;;;;1.90;1.03;;;12.60;60.70;;;;;;5006715;28;20491;-59
2023/01/13 11:54:44;;;;;;;2.83;0.93;;;12.50;61.70;;;;;;5004310;28;20433;-58
2023/01/13 11:57:13;;;;;;;2.80;1.20;;;12.50;61.40;;;;;;5006222;28;20598;-59
2023/01/13 12:00:08;;;;;;;3.57;1.00;;;12.40;60.60;;;;;;4999203;28;20956;-58
2023/01/13 12:03:02;;;;;;;3.23;1.37;;;12.60;61.30;;;;;;5004376;28;20819;-59
2023/01/13 12:05:43;;;;;;;2.33;1.03;;;12.60;59.90;;;;;;5000196;28;20453;-59
2023/01/13 12:08:09;;;;;;;3.40;1.90;;;12.70;60.10;;;;;;5001216;28;20540;-59
2023/01/13 12:10:47;;;;;;;4.47;1.27;;;12.60;60.00;;;;;;5006415;28;20891;-59
2023/01/13 12:13:30;;;;;;;2.33;1.20;;;12.70;60.10;;;;;;5002819;28;20598;-58
2023/01/13 12:15:59;;;;;;;1.97;1.03;;;12.60;60.40;;;;;;4998400;28;20493;-59
2023/01/13 12:19:01;;;;;;;1.10;0.90;;;12.50;60.00;;;;;;5005218;28;20477;-59
2023/01/13 12:21:31;;;;;;;1.83;0.93;;;12.60;60.30;;;;;;4995733;28;20964;-62
2023/01/13 12:24:38;;;;;;;3.13;0.90;;;12.70;59.70;;;;;;5004117;28;20481;-59
2023/01/13 12:27:39;;;;;;;2.17;1.30;;;12.80;59.70;;;;;;4985968;28;20829;-59
2023/01/13 12:30:39;;;;;;;2.73;1.37;;;12.90;59.70;;;;;;5005938;28;20530;-60
2023/01/13 12:33:58;;;;;;;1.93;0.97;;;13.10;59.40;;;;;;5000505;28;20448;-60
2023/01/13 12:36:26;;;;;;;1.20;0.70;;;12.60;59.20;;;;;;4964928;28;20549;-60
2023/01/13 12:38:55;;;;;;;1.27;0.97;;;12.70;60.00;;;;;;4963083;28;20521;-60
2023/01/13 12:44:15;;;;;;;0.83;0.70;;;12.80;59.60;;;;;;4983238;28;20449;-60
2023/01/13 12:44:25;;;;;;;1.20;0.90;;;12.60;58.90;;;;;;4998754;28;20490;-60
2023/01/13 12:46:54;;;;;;;1.77;0.90;;;12.70;59.10;;;;;;5009599;28;20449;-60
2023/01/13 12:49:30;;;;;;;5.53;1.60;;;12.80;59.50;;;;;;5012450;28;20206;-60
2023/01/13 12:51:56;;;;;;;3.30;0.87;;;12.80;59.20;;;;;;5013548;28;20448;-58
2023/01/13 12:54:40;;;;;;;2.87;1.03;;;12.90;59.10;;;;;;5008078;28;20444;-60
2023/01/13 12:57:25;;;;;;;3.70;1.50;;;12.80;59.00;;;;;;5007530;28;20200;-60
2023/01/13 13:00:03;;;;;;;3.90;1.40;;;12.70;59.40;;;;;;5004730;28;20437;-60
2023/01/13 13:02:30;;;;;;;2.33;1.13;;;12.80;58.90;;;;;;5002225;28;20456;-59
2023/01/13 13:05:00;;;;;;;2.50;1.33;;;12.70;57.70;;;;;;5003358;28;20835;-59
2023/01/13 13:07:35;;;;;;;3.40;1.70;;;12.60;55.80;;;;;;5008800;28;20447;-60
2023/01/13 13:10:13;;;;;;;3.90;1.17;;;12.50;56.00;;;;;;5007246;28;20452;-59
2023/01/13 13:15:32;;;;;;;4.10;1.10;;;12.10;54.40;;;;;;5004466;28;20500;-60
2023/01/13 13:17:58;;;;;;;4.17;1.40;;;12.40;54.30;;;;;;5007344;28;20548;-59
2023/01/13 13:20:53;;;;;;;7.80;1.33;;;12.70;54.50;;;;;;5010246;28;20536;-59
2023/01/13 13:23:43;;;;;;;4.03;1.00;;;12.70;53.10;;;;;;5007170;28;20545;-58
2023/01/13 13:26:20;;;;;;;2.50;1.53;;;13.00;53.40;;;;;;5002380;28;20507;-58
2023/01/13 13:28:58;;;;;;;5.20;1.60;;;12.90;52.50;;;;;;4999840;28;20441;-58
2023/01/13 13:31:40;;;;;;;2.20;1.00;;;13.20;53.10;;;;;;4999979;28;20561;-58
2023/01/13 13:34:36;;;;;;;1.33;1.10;;;13.40;52.90;;;;;;5000488;28;20478;-58
2023/01/13 13:37:15;;;;;;;5.10;1.07;;;13.30;52.10;;;;;;4995376;28;20503;-58
2023/01/13 13:48:21;;;;;;;3.60;1.27;;;13.50;51.60;;;;;;5001006;28;20477;-58
2023/01/13 13:50:58;;;;;;;6.63;1.60;;;13.30;51.50;;;;;;4998397;28;20473;-57
2023/01/13 13:53:28;;;;;;;2.50;1.03;;;13.30;52.20;;;;;;5002843;28;20453;-57
2023/01/13 13:55:58;;;;;;;3.40;1.10;;;13.40;51.30;;;;;;5004677;28;20492;-57
2023/01/13 13:58:26;;;;;;;3.57;1.13;;;13.60;51.40;;;;;;5004265;28;20507;-57
2023/01/13 14:00:52;;;;;;;5.20;1.43;;;13.70;50.90;;;;;;5006283;28;20451;-57
2023/01/13 14:03:25;;;;;;;2.40;1.50;;;13.70;50.80;;;;;;5004875;28;20436;-57
2023/01/13 14:05:55;;;;;;;3.43;0.97;;;13.90;51.00;;;;;;5010619;28;20441;-57